createdAt,value
2022-10-29T00:00:01.073Z,0.00
2022-10-29T00:01:01.234Z,0.00
2022-10-29T00:02:01.485Z,0.00
2022-10-29T00:03:01.722Z,0.00
2022-10-29T00:04:01.764Z,0.00
2022-10-29T00:05:01.971Z,0.00
2022-10-29T00:06:02.110Z,0.00
2022-10-29T00:07:02.284Z,0.00
2022-10-29T00:08:02.449Z,0.00
2022-10-29T00:09:02.604Z,0.00
2022-10-29T00:10:02.806Z,0.00
2022-10-29T00:11:02.945Z,0.00
2022-10-29T00:12:03.118Z,0.00
2022-10-29T00:13:03.286Z,0.00
2022-10-29T00:14:03.455Z,0.00
2022-10-29T00:15:03.634Z,0.00
2022-10-29T00:16:03.764Z,0.00
2022-10-29T00:17:03.948Z,0.00
2022-10-29T00:18:04.115Z,0.00
2022-10-29T00:19:04.285Z,0.00
2022-10-29T00:20:04.501Z,0.00
2022-10-29T00:21:04.605Z,0.00
2022-10-29T00:22:04.765Z,0.00
2022-10-29T00:23:04.945Z,0.00
2022-10-29T00:24:05.115Z,0.00
2022-10-29T00:25:05.307Z,0.00
2022-10-29T00:26:05.476Z,0.00
2022-10-29T00:27:05.655Z,0.00
2022-10-29T00:28:05.817Z,0.00
2022-10-29T00:29:06.012Z,0.00
2022-10-29T00:30:06.185Z,0.00
2022-10-29T00:31:06.357Z,0.00
2022-10-29T00:32:06.639Z,0.00
2022-10-29T00:33:06.760Z,0.00
2022-10-29T00:34:06.856Z,0.00
2022-10-29T00:35:07.048Z,0.00
2022-10-29T00:36:07.207Z,0.00
2022-10-29T00:37:07.375Z,0.00
2022-10-29T00:38:07.546Z,0.00
2022-10-29T00:39:07.739Z,0.00
2022-10-29T00:40:07.915Z,0.00
2022-10-29T00:41:08.083Z,0.00
2022-10-29T00:42:08.247Z,0.00
2022-10-29T00:43:08.430Z,0.00
2022-10-29T00:44:08.587Z,0.00
2022-10-29T00:45:08.776Z,0.00
2022-10-29T00:46:08.917Z,0.00
2022-10-29T00:47:09.124Z,0.00
2022-10-29T00:48:09.247Z,0.00
2022-10-29T00:49:09.417Z,0.00
2022-10-29T00:50:09.609Z,0.00
2022-10-29T00:51:09.784Z,0.00
2022-10-29T00:52:09.944Z,0.00
2022-10-29T00:53:10.117Z,0.00
2022-10-29T00:54:10.289Z,0.00
2022-10-29T00:55:10.482Z,0.00
2022-10-29T00:56:10.637Z,0.00
2022-10-29T00:57:10.814Z,0.00
2022-10-29T00:58:10.987Z,0.00
2022-10-29T00:59:11.167Z,0.00
2022-10-29T01:00:11.345Z,0.00
2022-10-29T01:01:11.581Z,0.00
2022-10-29T01:02:11.932Z,0.00
2022-10-29T01:03:11.952Z,0.00
2022-10-29T01:04:12.025Z,0.00
2022-10-29T01:05:12.208Z,0.00
2022-10-29T01:06:12.380Z,0.00
2022-10-29T01:07:12.547Z,0.00
2022-10-29T01:08:12.719Z,0.00
2022-10-29T01:09:12.909Z,0.00
2022-10-29T01:10:13.098Z,0.00
2022-10-29T01:11:13.238Z,0.00
2022-10-29T01:12:13.399Z,0.00
2022-10-29T01:13:13.596Z,0.00
2022-10-29T01:14:13.738Z,0.00
2022-10-29T01:15:13.917Z,0.00
2022-10-29T01:16:14.087Z,0.00
2022-10-29T01:17:17.595Z,0.00
2022-10-29T01:18:14.424Z,0.00
2022-10-29T01:19:14.701Z,0.00
2022-10-29T01:20:14.768Z,0.00
2022-10-29T01:21:14.948Z,0.00
2022-10-29T01:22:15.133Z,0.00
2022-10-29T01:23:15.300Z,0.00
2022-10-29T01:24:15.501Z,0.00
2022-10-29T01:25:15.638Z,0.00
2022-10-29T01:26:15.800Z,0.00
2022-10-29T01:27:15.977Z,0.00
2022-10-29T01:28:16.140Z,0.00
2022-10-29T01:29:16.350Z,0.00
2022-10-29T01:30:16.519Z,0.00
2022-10-29T01:31:16.697Z,0.00
2022-10-29T01:32:16.863Z,0.00
2022-10-29T01:33:17.037Z,0.00
2022-10-29T01:34:17.219Z,0.00
2022-10-29T01:35:17.397Z,0.00
2022-10-29T01:36:17.560Z,0.00
2022-10-29T01:37:17.738Z,0.00
2022-10-29T01:38:17.914Z,0.00
2022-10-29T01:39:18.119Z,0.00
2022-10-29T01:40:18.250Z,0.00
2022-10-29T01:41:18.428Z,0.00
2022-10-29T01:42:18.587Z,0.00
2022-10-29T01:44:18.942Z,0.00
2022-10-29T01:45:19.118Z,0.00
2022-10-29T01:46:19.288Z,0.00
2022-10-29T01:47:19.464Z,0.00
2022-10-29T01:48:19.631Z,0.00
2022-10-29T01:49:19.812Z,0.00
2022-10-29T01:50:19.950Z,0.00
2022-10-29T01:51:20.121Z,0.00
2022-10-29T01:52:20.298Z,0.00
2022-10-29T01:53:20.473Z,0.00
2022-10-29T01:54:20.661Z,0.00
2022-10-29T01:55:20.823Z,0.00
2022-10-29T01:56:20.998Z,0.00
2022-10-29T01:57:21.161Z,0.00
2022-10-29T01:58:21.314Z,0.00
2022-10-29T01:59:35.409Z,0.00
2022-10-29T02:00:22.668Z,0.00
2022-10-29T02:01:21.926Z,0.00
2022-10-29T02:02:21.993Z,0.00
2022-10-29T02:03:22.154Z,0.00
2022-10-29T02:04:22.335Z,0.00
2022-10-29T02:05:22.505Z,0.00
2022-10-29T02:06:22.672Z,0.00
2022-10-29T02:07:22.843Z,0.00
2022-10-29T02:08:23.003Z,0.00
2022-10-29T02:09:23.195Z,0.00
2022-10-29T02:10:23.362Z,0.00
2022-10-29T02:11:23.577Z,0.00
2022-10-29T02:12:23.735Z,0.00
2022-10-29T02:13:23.905Z,0.00
2022-10-29T02:14:24.077Z,0.00
2022-10-29T02:15:24.244Z,0.00
2022-10-29T02:16:24.413Z,0.00
2022-10-29T02:17:24.573Z,0.00
2022-10-29T02:18:24.743Z,0.00
2022-10-29T02:19:24.924Z,0.00
2022-10-29T02:20:25.091Z,0.00
2022-10-29T02:21:25.273Z,0.00
2022-10-29T02:22:25.444Z,0.00
2022-10-29T02:23:25.613Z,0.00
2022-10-29T02:24:25.793Z,0.00
2022-10-29T02:25:26.044Z,0.00
2022-10-29T02:26:26.143Z,0.00
2022-10-29T02:27:26.325Z,0.00
2022-10-29T02:28:26.487Z,0.00
2022-10-29T02:29:26.672Z,0.00
2022-10-29T02:30:26.835Z,0.00
2022-10-29T02:31:27.004Z,0.00
2022-10-29T02:32:27.173Z,0.00
2022-10-29T02:33:27.343Z,0.00
2022-10-29T02:34:27.536Z,0.00
2022-10-29T02:35:27.702Z,0.00
2022-10-29T02:36:27.873Z,0.00
2022-10-29T02:37:28.044Z,0.00
2022-10-29T02:38:28.225Z,0.00
2022-10-29T02:39:28.408Z,0.00
2022-10-29T02:40:28.583Z,0.00
2022-10-29T02:41:28.734Z,0.00
2022-10-29T02:42:28.904Z,0.00
2022-10-29T02:43:29.069Z,0.00
2022-10-29T02:44:29.254Z,0.00
2022-10-29T02:45:29.424Z,0.00
2022-10-29T02:46:29.594Z,0.00
2022-10-29T02:47:29.764Z,0.00
2022-10-29T02:48:29.943Z,0.00
2022-10-29T02:49:30.126Z,0.00
2022-10-29T02:50:30.303Z,0.00
2022-10-29T02:51:30.475Z,0.00
2022-10-29T02:52:30.645Z,0.00
2022-10-29T02:53:30.815Z,0.00
2022-10-29T02:54:30.996Z,0.00
2022-10-29T02:55:31.135Z,0.00
2022-10-29T02:56:31.305Z,0.00
2022-10-29T02:57:31.477Z,0.00
2022-10-29T02:58:31.654Z,0.00
2022-10-29T02:59:31.845Z,0.00
2022-10-29T03:00:32.015Z,0.00
2022-10-29T03:01:32.274Z,0.00
2022-10-29T03:02:32.496Z,0.00
2022-10-29T03:03:32.546Z,0.00
2022-10-29T03:04:32.746Z,0.00
2022-10-29T03:05:32.888Z,0.00
2022-10-29T03:06:33.056Z,0.00
2022-10-29T03:07:33.226Z,0.00
2022-10-29T03:08:33.404Z,0.00
2022-10-29T03:09:33.590Z,0.00
2022-10-29T03:10:33.746Z,0.00
2022-10-29T03:11:33.915Z,0.00
2022-10-29T03:12:34.086Z,0.00
2022-10-29T03:13:34.337Z,0.00
2022-10-29T03:14:34.446Z,0.00
2022-10-29T03:15:34.607Z,0.00
2022-10-29T03:16:34.775Z,0.00
2022-10-29T03:17:34.937Z,0.00
2022-10-29T03:18:35.106Z,0.00
2022-10-29T03:19:35.296Z,0.00
2022-10-29T03:20:35.467Z,0.00
2022-10-29T03:21:35.629Z,0.00
2022-10-29T03:22:35.799Z,0.00
2022-10-29T03:23:35.965Z,0.00
2022-10-29T03:24:36.149Z,0.00
2022-10-29T03:25:36.317Z,0.00
2022-10-29T03:26:36.495Z,0.00
2022-10-29T03:27:36.652Z,0.00
2022-10-29T03:28:36.872Z,0.00
2022-10-29T03:29:37.017Z,0.00
2022-10-29T03:30:37.187Z,0.00
2022-10-29T03:31:37.357Z,0.00
2022-10-29T03:32:37.534Z,0.00
2022-10-29T03:33:37.718Z,0.00
2022-10-29T03:34:37.977Z,0.00
2022-10-29T03:35:38.101Z,0.00
2022-10-29T03:36:38.211Z,0.00
2022-10-29T03:37:38.377Z,0.00
2022-10-29T03:38:38.567Z,0.00
2022-10-29T03:39:38.728Z,0.00
2022-10-29T03:40:38.897Z,0.00
2022-10-29T03:41:39.058Z,0.00
2022-10-29T03:42:39.229Z,0.00
2022-10-29T03:43:39.429Z,0.00
2022-10-29T03:44:39.583Z,0.00
2022-10-29T03:45:39.737Z,0.00
2022-10-29T03:46:39.908Z,0.00
2022-10-29T03:47:40.087Z,0.00
2022-10-29T03:48:40.268Z,0.00
2022-10-29T03:49:40.429Z,0.00
2022-10-29T03:50:40.606Z,0.00
2022-10-29T03:51:40.770Z,0.00
2022-10-29T03:52:40.970Z,0.00
2022-10-29T03:53:41.149Z,0.00
2022-10-29T03:54:41.329Z,0.00
2022-10-29T03:55:41.488Z,0.00
2022-10-29T03:56:41.659Z,0.00
2022-10-29T03:57:41.839Z,0.00
2022-10-29T03:58:42.019Z,0.00
2022-10-29T03:59:42.190Z,0.00
2022-10-29T04:00:42.378Z,0.00
2022-10-29T04:01:42.612Z,0.00
2022-10-29T04:02:42.857Z,0.00
2022-10-29T04:03:42.936Z,0.00
2022-10-29T04:04:43.073Z,0.00
2022-10-29T04:05:43.240Z,0.00
2022-10-29T04:06:43.514Z,0.00
2022-10-29T04:07:43.579Z,0.00
2022-10-29T04:08:43.763Z,0.00
2022-10-29T04:09:43.932Z,0.00
2022-10-29T04:10:44.091Z,0.00
2022-10-29T04:11:44.248Z,0.00
2022-10-29T04:12:44.419Z,0.00
2022-10-29T04:13:44.610Z,0.00
2022-10-29T04:14:45.592Z,0.00
2022-10-29T04:15:44.939Z,0.00
2022-10-29T04:16:45.118Z,0.00
2022-10-29T04:17:45.272Z,0.00
2022-10-29T04:18:45.952Z,0.00
2022-10-29T04:19:45.610Z,0.00
2022-10-29T04:22:22.885Z,0.00
2022-10-29T04:27:08.090Z,0.00
2022-10-29T04:28:48.174Z,0.00
2022-10-29T04:29:47.321Z,0.00
2022-10-29T04:30:47.500Z,0.00
2022-10-29T04:31:47.661Z,0.00
2022-10-29T04:32:47.829Z,0.00
2022-10-29T04:33:48.011Z,0.00
2022-10-29T04:34:48.183Z,0.00
2022-10-29T04:35:48.340Z,0.00
2022-10-29T04:36:48.512Z,0.00
2022-10-29T04:37:48.683Z,0.00
2022-10-29T04:38:48.860Z,0.00
2022-10-29T04:39:49.031Z,0.00
2022-10-29T04:40:49.202Z,0.00
2022-10-29T04:41:49.371Z,0.00
2022-10-29T04:42:49.533Z,0.00
2022-10-29T04:43:49.716Z,0.00
2022-10-29T04:44:49.893Z,0.00
2022-10-29T04:45:50.043Z,0.00
2022-10-29T04:46:50.239Z,0.00
2022-10-29T04:47:50.392Z,0.00
2022-10-29T04:48:50.606Z,0.00
2022-10-29T04:49:50.720Z,0.00
2022-10-29T04:50:50.893Z,0.00
2022-10-29T04:51:51.061Z,0.00
2022-10-29T04:52:51.231Z,0.00
2022-10-29T04:53:51.431Z,0.00
2022-10-29T04:54:51.573Z,0.00
2022-10-29T04:55:51.732Z,0.00
2022-10-29T04:56:51.922Z,0.00
2022-10-29T04:57:52.064Z,0.00
2022-10-29T04:58:52.293Z,0.00
2022-10-29T04:59:52.402Z,0.00
2022-10-29T05:00:52.630Z,0.00
2022-10-29T05:01:52.712Z,0.00
2022-10-29T05:02:53.296Z,0.00
2022-10-29T05:03:55.692Z,0.00
2022-10-29T05:04:54.222Z,0.00
2022-10-29T05:05:53.392Z,0.00
2022-10-29T05:06:53.555Z,0.00
2022-10-29T05:07:53.712Z,0.00
2022-10-29T05:08:53.904Z,0.00
2022-10-29T05:09:54.077Z,0.00
2022-10-29T05:10:54.255Z,0.00
2022-10-29T05:11:54.401Z,0.00
2022-10-29T05:12:54.786Z,0.00
2022-10-29T05:13:54.755Z,0.00
2022-10-29T05:14:54.931Z,0.00
2022-10-29T05:15:55.122Z,0.00
2022-10-29T05:16:55.322Z,0.00
2022-10-29T05:17:55.847Z,0.00
2022-10-29T05:18:55.644Z,0.00
2022-10-29T05:19:55.815Z,0.00
2022-10-29T05:20:56.007Z,0.00
2022-10-29T05:21:56.163Z,0.00
2022-10-29T05:22:56.324Z,0.00
2022-10-29T05:23:56.515Z,0.00
2022-10-29T05:24:56.691Z,0.00
2022-10-29T05:25:56.861Z,0.00
2022-10-29T05:26:57.024Z,0.00
2022-10-29T05:27:57.356Z,0.00
2022-10-29T05:28:57.373Z,0.00
2022-10-29T05:29:57.557Z,0.00
2022-10-29T05:30:57.733Z,0.00
2022-10-29T05:31:57.895Z,0.00
2022-10-29T05:32:58.351Z,0.00
2022-10-29T05:33:58.253Z,0.00
2022-10-29T05:34:58.433Z,0.00
2022-10-29T05:35:58.603Z,0.00
2022-10-29T05:36:58.775Z,0.00
2022-10-29T05:37:58.945Z,0.00
2022-10-29T05:38:59.144Z,0.00
2022-10-29T05:39:59.339Z,0.00
2022-10-29T05:40:59.473Z,0.00
2022-10-29T05:41:59.613Z,0.00
2022-10-29T05:43:00.138Z,0.00
2022-10-29T05:44:00.022Z,0.00
2022-10-29T05:45:00.181Z,0.00
2022-10-29T05:46:00.353Z,0.00
2022-10-29T05:47:00.549Z,0.00
2022-10-29T05:48:00.780Z,0.00
2022-10-29T05:49:00.902Z,0.00
2022-10-29T05:50:01.054Z,0.00
2022-10-29T05:51:01.237Z,5.62
2022-10-29T05:52:01.405Z,5.62
2022-10-29T05:53:01.564Z,5.62
2022-10-29T05:54:01.754Z,5.62
2022-10-29T05:55:01.915Z,5.62
2022-10-29T05:56:02.094Z,5.62
2022-10-29T05:57:02.290Z,5.62
2022-10-29T05:58:02.442Z,11.25
2022-10-29T05:59:02.647Z,11.25
2022-10-29T06:00:02.793Z,11.25
2022-10-29T06:01:03.010Z,11.25
2022-10-29T06:02:03.255Z,11.25
2022-10-29T06:03:03.389Z,16.88
2022-10-29T06:04:03.515Z,16.88
2022-10-29T06:05:03.705Z,16.88
2022-10-29T06:06:03.922Z,22.50
2022-10-29T06:07:04.026Z,22.50
2022-10-29T06:08:04.234Z,22.50
2022-10-29T06:09:04.395Z,28.12
2022-10-29T06:10:04.585Z,28.12
2022-10-29T06:11:04.777Z,33.75
2022-10-29T06:12:04.966Z,33.75
2022-10-29T06:13:05.165Z,39.38
2022-10-29T06:14:05.327Z,45.00
2022-10-29T06:15:05.500Z,45.00
2022-10-29T06:16:05.676Z,50.62
2022-10-29T06:17:05.866Z,56.25
2022-10-29T06:18:06.065Z,61.88
2022-10-29T06:19:06.246Z,67.50
2022-10-29T06:20:06.434Z,73.12
2022-10-29T06:21:06.586Z,73.12
2022-10-29T06:22:06.760Z,78.75
2022-10-29T06:23:06.951Z,78.75
2022-10-29T06:24:07.116Z,84.38
2022-10-29T06:25:07.305Z,84.38
2022-10-29T06:26:07.451Z,84.38
2022-10-29T06:27:07.636Z,90.00
2022-10-29T06:28:07.845Z,90.00
2022-10-29T06:29:07.975Z,90.00
2022-10-29T06:30:08.148Z,95.62
2022-10-29T06:31:08.326Z,95.62
2022-10-29T06:32:08.506Z,101.25
2022-10-29T06:33:08.723Z,106.88
2022-10-29T06:34:08.866Z,112.50
2022-10-29T06:35:09.047Z,112.50
2022-10-29T06:36:09.223Z,112.50
2022-10-29T06:37:09.375Z,112.50
2022-10-29T06:38:12.448Z,118.12
2022-10-29T06:39:09.726Z,123.75
2022-10-29T06:40:09.906Z,123.75
2022-10-29T06:41:10.067Z,129.38
2022-10-29T06:42:10.251Z,135.00
2022-10-29T06:43:10.491Z,135.00
2022-10-29T06:44:10.617Z,140.62
2022-10-29T06:45:10.817Z,140.62
2022-10-29T06:46:10.983Z,146.25
2022-10-29T06:47:11.137Z,146.25
2022-10-29T06:48:11.328Z,151.88
2022-10-29T06:49:11.476Z,151.88
2022-10-29T06:50:11.645Z,151.88
2022-10-29T06:51:11.865Z,157.50
2022-10-29T06:52:11.997Z,157.50
2022-10-29T06:53:12.190Z,163.12
2022-10-29T06:54:12.328Z,163.12
2022-10-29T06:55:12.486Z,168.75
2022-10-29T06:56:12.671Z,174.38
2022-10-29T06:57:12.829Z,180.00
2022-10-29T06:58:13.040Z,180.00
2022-10-29T06:59:13.176Z,185.62
2022-10-29T07:00:13.359Z,191.25
2022-10-29T07:01:13.612Z,191.25
2022-10-29T07:02:13.700Z,191.25
2022-10-29T07:03:13.859Z,191.25
2022-10-29T07:04:14.058Z,191.25
2022-10-29T07:05:14.208Z,191.25
2022-10-29T07:06:14.368Z,196.88
2022-10-29T07:07:14.574Z,202.50
2022-10-29T07:08:14.714Z,202.50
2022-10-29T07:09:14.889Z,208.12
2022-10-29T07:10:15.048Z,208.12
2022-10-29T07:11:15.226Z,208.12
2022-10-29T07:12:15.418Z,208.12
2022-10-29T07:13:15.598Z,208.12
2022-10-29T07:14:15.736Z,208.12
2022-10-29T07:15:15.917Z,213.75
2022-10-29T07:16:16.098Z,213.75
2022-10-29T07:17:16.256Z,219.38
2022-10-29T07:18:16.473Z,225.00
2022-10-29T07:19:16.618Z,225.00
2022-10-29T07:20:16.781Z,230.62
2022-10-29T07:21:16.960Z,236.25
2022-10-29T07:22:17.146Z,236.25
2022-10-29T07:23:17.360Z,241.88
2022-10-29T07:24:17.470Z,247.50
2022-10-29T07:25:17.635Z,247.50
2022-10-29T07:26:17.820Z,253.12
2022-10-29T07:27:18.113Z,258.75
2022-10-29T07:28:18.171Z,264.38
2022-10-29T07:29:18.343Z,264.38
2022-10-29T07:30:18.528Z,270.00
2022-10-29T07:31:18.709Z,275.62
2022-10-29T07:32:18.899Z,281.25
2022-10-29T07:33:19.085Z,281.25
2022-10-29T07:34:19.251Z,286.88
2022-10-29T07:35:19.434Z,292.50
2022-10-29T07:36:19.622Z,292.50
2022-10-29T07:37:19.806Z,298.12
2022-10-29T07:38:20.000Z,303.75
2022-10-29T07:39:20.241Z,309.38
2022-10-29T07:40:20.368Z,320.62
2022-10-29T07:41:20.512Z,326.25
2022-10-29T07:42:20.708Z,331.88
2022-10-29T07:43:20.880Z,337.50
2022-10-29T07:44:21.052Z,337.50
2022-10-29T07:45:21.210Z,337.50
2022-10-29T07:46:21.371Z,354.38
2022-10-29T07:47:21.550Z,371.25
2022-10-29T07:48:21.739Z,382.50
2022-10-29T07:49:21.870Z,388.12
2022-10-29T07:50:22.031Z,399.38
2022-10-29T07:51:22.192Z,410.62
2022-10-29T07:52:22.351Z,421.88
2022-10-29T07:53:22.552Z,433.12
2022-10-29T07:54:22.703Z,438.75
2022-10-29T07:55:22.904Z,450.00
2022-10-29T07:56:23.051Z,444.38
2022-10-29T07:57:23.234Z,455.62
2022-10-29T07:58:23.431Z,483.75
2022-10-29T07:59:23.572Z,478.12
2022-10-29T08:00:23.824Z,444.38
2022-10-29T08:01:24.022Z,455.62
2022-10-29T08:02:24.126Z,478.12
2022-10-29T08:03:24.322Z,511.88
2022-10-29T08:04:24.503Z,500.62
2022-10-29T08:05:24.642Z,489.38
2022-10-29T08:06:24.835Z,511.88
2022-10-29T08:07:25.015Z,500.62
2022-10-29T08:08:25.222Z,461.25
2022-10-29T08:09:25.382Z,450.00
2022-10-29T08:10:25.573Z,410.62
2022-10-29T08:11:25.737Z,410.62
2022-10-29T08:12:25.893Z,433.12
2022-10-29T08:13:26.084Z,466.88
2022-10-29T08:14:26.242Z,506.25
2022-10-29T08:15:26.393Z,489.38
2022-10-29T08:16:26.578Z,506.25
2022-10-29T08:17:26.781Z,607.50
2022-10-29T08:18:26.963Z,714.38
2022-10-29T08:19:27.093Z,759.38
2022-10-29T08:20:27.299Z,781.88
2022-10-29T08:21:27.453Z,691.88
2022-10-29T08:22:27.634Z,646.88
2022-10-29T08:23:27.804Z,731.25
2022-10-29T08:24:27.965Z,883.12
2022-10-29T08:25:28.134Z,1001.25
2022-10-29T08:26:28.315Z,1001.25
2022-10-29T08:27:28.483Z,978.75
2022-10-29T08:28:30.525Z,883.12
2022-10-29T08:29:28.845Z,838.12
2022-10-29T08:30:29.037Z,765.00
2022-10-29T08:31:29.195Z,945.00
2022-10-29T08:32:29.377Z,967.50
2022-10-29T08:33:29.575Z,877.50
2022-10-29T08:34:29.724Z,866.25
2022-10-29T08:35:29.947Z,911.25
2022-10-29T08:36:30.047Z,871.88
2022-10-29T08:37:30.208Z,905.62
2022-10-29T08:38:30.408Z,995.62
2022-10-29T08:39:30.547Z,1096.88
2022-10-29T08:40:30.736Z,1108.12
2022-10-29T08:41:30.927Z,1119.38
2022-10-29T08:42:31.099Z,1113.75
2022-10-29T08:43:31.288Z,1051.88
2022-10-29T08:44:31.447Z,961.88
2022-10-29T08:45:31.616Z,922.50
2022-10-29T08:46:31.790Z,933.75
2022-10-29T08:47:31.974Z,888.75
2022-10-29T08:48:32.149Z,849.38
2022-10-29T08:49:32.318Z,849.38
2022-10-29T08:50:32.478Z,838.12
2022-10-29T08:51:32.649Z,776.25
2022-10-29T08:52:32.828Z,748.12
2022-10-29T08:53:33.907Z,630.00
2022-10-29T08:54:33.193Z,652.50
2022-10-29T08:55:33.343Z,663.75
2022-10-29T08:56:33.530Z,753.75
2022-10-29T08:57:33.692Z,748.12
2022-10-29T08:58:33.879Z,821.25
2022-10-29T08:59:34.042Z,916.88
2022-10-29T09:00:34.238Z,922.50
2022-10-29T09:01:34.465Z,928.12
2022-10-29T09:02:34.549Z,905.62
2022-10-29T09:03:34.730Z,1023.75
2022-10-29T09:04:34.880Z,967.50
2022-10-29T09:05:35.072Z,961.88
2022-10-29T09:06:35.242Z,967.50
2022-10-29T09:07:35.411Z,1108.12
2022-10-29T09:08:35.590Z,1220.62
2022-10-29T09:09:35.744Z,1220.62
2022-10-29T09:10:35.924Z,1141.88
2022-10-29T09:11:36.076Z,1153.12
2022-10-29T09:12:36.262Z,990.00
2022-10-29T09:13:36.453Z,1040.62
2022-10-29T09:14:36.623Z,1029.38
2022-10-29T09:15:36.772Z,1074.38
2022-10-29T09:16:36.973Z,1361.25
2022-10-29T09:17:37.123Z,1366.88
2022-10-29T09:18:37.307Z,1378.12
2022-10-29T09:19:37.490Z,1485.00
2022-10-29T09:20:37.662Z,1271.25
2022-10-29T09:21:37.834Z,1209.38
2022-10-29T09:22:38.015Z,1119.38
2022-10-29T09:23:38.215Z,1051.88
2022-10-29T09:24:38.390Z,945.00
2022-10-29T09:25:38.563Z,832.50
2022-10-29T09:26:38.734Z,714.38
2022-10-29T09:27:38.894Z,680.62
2022-10-29T09:28:39.087Z,646.88
2022-10-29T09:29:39.243Z,669.38
2022-10-29T09:30:39.410Z,658.12
2022-10-29T09:31:39.587Z,601.88
2022-10-29T09:32:39.852Z,568.12
2022-10-29T09:33:39.978Z,545.62
2022-10-29T09:34:40.127Z,528.75
2022-10-29T09:35:40.310Z,523.12
2022-10-29T09:36:40.467Z,506.25
2022-10-29T09:37:40.667Z,495.00
2022-10-29T09:38:40.817Z,483.75
2022-10-29T09:39:40.988Z,478.12
2022-10-29T09:40:41.167Z,472.50
2022-10-29T09:41:41.337Z,466.88
2022-10-29T09:42:41.526Z,461.25
2022-10-29T09:43:41.730Z,455.62
2022-10-29T09:44:41.871Z,444.38
2022-10-29T09:45:42.069Z,433.12
2022-10-29T09:46:42.219Z,421.88
2022-10-29T09:47:42.399Z,410.62
2022-10-29T09:48:42.597Z,410.62
2022-10-29T09:49:42.748Z,405.00
2022-10-29T09:50:42.929Z,405.00
2022-10-29T09:51:43.110Z,405.00
2022-10-29T09:52:43.307Z,405.00
2022-10-29T09:53:43.459Z,405.00
2022-10-29T09:54:43.621Z,405.00
2022-10-29T09:55:43.795Z,405.00
2022-10-29T09:56:43.974Z,405.00
2022-10-29T09:57:44.169Z,410.62
2022-10-29T09:58:44.315Z,421.88
2022-10-29T09:59:44.490Z,438.75
2022-10-29T10:00:44.670Z,444.38
2022-10-29T10:01:44.880Z,455.62
2022-10-29T10:02:45.175Z,478.12
2022-10-29T10:03:45.190Z,489.38
2022-10-29T10:04:45.352Z,500.62
2022-10-29T10:05:45.512Z,511.88
2022-10-29T10:06:45.691Z,517.50
2022-10-29T10:07:45.894Z,523.12
2022-10-29T10:08:46.031Z,511.88
2022-10-29T10:09:46.222Z,495.00
2022-10-29T10:10:46.402Z,472.50
2022-10-29T10:11:46.601Z,461.25
2022-10-29T10:12:46.788Z,444.38
2022-10-29T10:13:46.934Z,421.88
2022-10-29T10:14:47.113Z,410.62
2022-10-29T10:15:47.293Z,393.75
2022-10-29T10:16:47.475Z,399.38
2022-10-29T10:17:47.683Z,405.00
2022-10-29T10:18:47.847Z,393.75
2022-10-29T10:19:48.003Z,393.75
2022-10-29T10:20:48.162Z,365.62
2022-10-29T10:21:48.323Z,354.38
2022-10-29T10:22:48.527Z,388.12
2022-10-29T10:23:48.684Z,427.50
2022-10-29T10:24:48.844Z,427.50
2022-10-29T10:25:49.081Z,410.62
2022-10-29T10:26:49.167Z,399.38
2022-10-29T10:27:49.364Z,399.38
2022-10-29T10:28:49.516Z,399.38
2022-10-29T10:29:49.728Z,393.75
2022-10-29T10:30:49.881Z,388.12
2022-10-29T10:31:50.026Z,393.75
2022-10-29T10:32:50.211Z,393.75
2022-10-29T10:33:50.356Z,388.12
2022-10-29T10:34:50.545Z,382.50
2022-10-29T10:35:50.727Z,388.12
2022-10-29T10:36:50.897Z,382.50
2022-10-29T10:37:51.086Z,376.88
2022-10-29T10:38:51.232Z,376.88
2022-10-29T10:39:51.395Z,376.88
2022-10-29T10:40:51.567Z,371.25
2022-10-29T10:41:51.733Z,365.62
2022-10-29T10:42:51.926Z,360.00
2022-10-29T10:43:52.075Z,360.00
2022-10-29T10:44:52.252Z,360.00
2022-10-29T10:45:52.427Z,354.38
2022-10-29T10:46:52.576Z,360.00
2022-10-29T10:47:52.791Z,354.38
2022-10-29T10:48:52.957Z,354.38
2022-10-29T10:49:53.126Z,360.00
2022-10-29T10:50:53.277Z,360.00
2022-10-29T10:51:53.458Z,360.00
2022-10-29T10:52:53.977Z,348.75
2022-10-29T10:53:53.887Z,354.38
2022-10-29T10:54:53.968Z,365.62
2022-10-29T10:55:54.175Z,371.25
2022-10-29T10:56:54.308Z,376.88
2022-10-29T10:57:54.482Z,382.50
2022-10-29T10:58:54.637Z,393.75
2022-10-29T10:59:54.828Z,399.38
2022-10-29T11:00:55.092Z,388.12
2022-10-29T11:01:55.344Z,388.12
2022-10-29T11:02:55.805Z,382.50
2022-10-29T11:03:55.529Z,382.50
2022-10-29T11:04:55.693Z,376.88
2022-10-29T11:05:55.884Z,388.12
2022-10-29T11:06:56.069Z,388.12
2022-10-29T11:07:56.642Z,382.50
2022-10-29T11:08:56.422Z,343.12
2022-10-29T11:09:56.570Z,326.25
2022-10-29T11:10:56.770Z,331.88
2022-10-29T11:11:58.991Z,326.25
2022-10-29T11:12:57.115Z,320.62
2022-10-29T11:13:57.264Z,320.62
2022-10-29T11:14:57.442Z,348.75
2022-10-29T11:15:57.602Z,360.00
2022-10-29T11:16:57.781Z,365.62
2022-10-29T11:17:58.488Z,371.25
2022-10-29T11:18:58.144Z,388.12
2022-10-29T11:19:58.302Z,388.12
2022-10-29T11:20:58.492Z,388.12
2022-10-29T11:21:58.667Z,393.75
2022-10-29T11:22:59.152Z,393.75
2022-10-29T11:23:58.979Z,399.38
2022-10-29T11:24:59.140Z,382.50
2022-10-29T11:25:59.320Z,365.62
2022-10-29T11:26:59.486Z,343.12
2022-10-29T11:27:59.652Z,326.25
2022-10-29T11:28:59.812Z,320.62
2022-10-29T11:29:59.993Z,331.88
2022-10-29T11:31:00.184Z,337.50
2022-10-29T11:32:00.343Z,326.25
2022-10-29T11:33:00.961Z,320.62
2022-10-29T11:34:00.690Z,326.25
2022-10-29T11:35:00.873Z,315.00
2022-10-29T11:36:01.860Z,309.38
2022-10-29T11:37:01.214Z,303.75
2022-10-29T11:38:01.388Z,303.75
2022-10-29T11:39:01.555Z,309.38
2022-10-29T11:40:01.703Z,315.00
2022-10-29T11:41:01.896Z,320.62
2022-10-29T11:42:02.054Z,326.25
2022-10-29T11:43:07.081Z,331.88
2022-10-29T11:44:03.403Z,348.75
2022-10-29T11:45:02.582Z,343.12
2022-10-29T11:46:02.737Z,337.50
2022-10-29T11:47:02.912Z,337.50
2022-10-29T11:48:03.139Z,326.25
2022-10-29T11:49:03.266Z,320.62
2022-10-29T11:50:03.428Z,320.62
2022-10-29T11:51:03.587Z,320.62
2022-10-29T11:52:03.753Z,337.50
2022-10-29T11:53:03.928Z,348.75
2022-10-29T11:54:04.087Z,371.25
2022-10-29T11:55:04.249Z,393.75
2022-10-29T11:56:04.406Z,410.62
2022-10-29T11:57:04.566Z,421.88
2022-10-29T11:58:04.748Z,427.50
2022-10-29T11:59:04.888Z,433.12
2022-10-29T12:00:05.065Z,433.12
2022-10-29T12:01:05.221Z,427.50
2022-10-29T12:02:05.407Z,427.50
2022-10-29T12:03:05.574Z,410.62
2022-10-29T12:04:05.803Z,416.25
2022-10-29T12:05:05.897Z,416.25
2022-10-29T12:06:06.088Z,410.62
2022-10-29T12:07:06.269Z,399.38
2022-10-29T12:08:06.457Z,393.75
2022-10-29T12:09:06.618Z,382.50
2022-10-29T12:10:06.770Z,376.88
2022-10-29T12:11:06.969Z,376.88
2022-10-29T12:12:07.129Z,376.88
2022-10-29T12:13:07.298Z,376.88
2022-10-29T12:14:07.449Z,371.25
2022-10-29T12:15:07.649Z,371.25
2022-10-29T12:16:07.799Z,371.25
2022-10-29T12:17:08.000Z,365.62
2022-10-29T12:18:08.233Z,365.62
2022-10-29T12:19:08.327Z,360.00
2022-10-29T12:20:08.481Z,354.38
2022-10-29T12:21:08.669Z,337.50
2022-10-29T12:22:08.821Z,331.88
2022-10-29T12:23:14.559Z,326.25
2022-10-29T12:24:10.168Z,320.62
2022-10-29T12:25:09.334Z,326.25
2022-10-29T12:26:09.510Z,326.25
2022-10-29T12:27:09.691Z,337.50
2022-10-29T12:28:09.861Z,343.12
2022-10-29T12:29:10.038Z,337.50
2022-10-29T12:30:10.264Z,320.62
2022-10-29T12:31:10.382Z,309.38
2022-10-29T12:32:10.534Z,298.12
2022-10-29T12:33:10.743Z,292.50
2022-10-29T12:34:10.900Z,264.38
2022-10-29T12:35:11.071Z,247.50
2022-10-29T12:36:11.233Z,247.50
2022-10-29T12:37:11.415Z,253.12
2022-10-29T12:38:11.614Z,253.12
2022-10-29T12:39:11.773Z,253.12
2022-10-29T12:40:11.934Z,275.62
2022-10-29T12:41:12.113Z,270.00
2022-10-29T12:42:12.293Z,264.38
2022-10-29T12:43:12.474Z,253.12
2022-10-29T12:44:12.613Z,253.12
2022-10-29T12:45:12.807Z,253.12
2022-10-29T12:46:20.979Z,247.50
2022-10-29T12:47:14.145Z,247.50
2022-10-29T12:48:13.364Z,241.88
2022-10-29T12:49:13.503Z,236.25
2022-10-29T12:50:13.684Z,236.25
2022-10-29T12:51:13.858Z,236.25
2022-10-29T12:52:14.005Z,230.62
2022-10-29T12:53:14.205Z,230.62
2022-10-29T12:54:14.366Z,225.00
2022-10-29T12:55:14.554Z,225.00
2022-10-29T12:56:16.414Z,225.00
2022-10-29T12:57:14.893Z,219.38
2022-10-29T12:58:15.036Z,213.75
2022-10-29T12:59:15.187Z,213.75